sensor_id;sensor_type;location;lat;lon;timestamp;temperature;humidity
20827;DHT22;10574;52.508;13.236;2023-07-13T00:02:19;18.80;99.90
20827;DHT22;10574;52.508;13.236;2023-07-13T00:04:46;18.70;99.90
20827;DHT22;10574;52.508;13.236;2023-07-13T00:07:14;18.70;99.90
20827;DHT22;10574;52.508;13.236;2023-07-13T00:09:42;18.70;99.90
20827;DHT22;10574;52.508;13.236;2023-07-13T00:12:28;18.70;99.90
20827;DHT22;10574;52.508;13.236;2023-07-13T00:14:57;18.70;99.90
20827;DHT22;10574;52.508;13.236;2023-07-13T00:17:27;18.70;99.90
20827;DHT22;10574;52.508;13.236;2023-07-13T00:19:56;18.70;99.90
20827;DHT22;10574;52.508;13.236;2023-07-13T00:22:25;18.70;99.90
20827;DHT22;10574;52.508;13.236;2023-07-13T00:24:53;18.70;99.90
20827;DHT22;10574;52.508;13.236;2023-07-13T00:27:25;18.60;99.90
20827;DHT22;10574;52.508;13.236;2023-07-13T00:29:57;18.60;99.90
20827;DHT22;10574;52.508;13.236;2023-07-13T00:32:25;18.50;99.90
20827;DHT22;10574;52.508;13.236;2023-07-13T00:34:53;18.50;99.90
20827;DHT22;10574;52.508;13.236;2023-07-13T00:37:20;18.50;99.90
20827;DHT22;10574;52.508;13.236;2023-07-13T00:39:48;18.60;99.90
20827;DHT22;10574;52.508;13.236;2023-07-13T00:42:16;18.50;99.90
20827;DHT22;10574;52.508;13.236;2023-07-13T00:45:05;18.50;99.90
20827;DHT22;10574;52.508;13.236;2023-07-13T00:47:33;18.40;99.90
20827;DHT22;10574;52.508;13.236;2023-07-13T00:50:02;18.40;99.90
20827;DHT22;10574;52.508;13.236;2023-07-13T00:52:30;18.30;99.90
20827;DHT22;10574;52.508;13.236;2023-07-13T00:54:58;18.20;99.90
20827;DHT22;10574;52.508;13.236;2023-07-13T00:57:27;18.10;99.90
20827;DHT22;10574;52.508;13.236;2023-07-13T00:59:57;18.00;99.90
20827;DHT22;10574;52.508;13.236;2023-07-13T01:02:26;17.90;99.90
20827;DHT22;10574;52.508;13.236;2023-07-13T01:04:54;17.60;99.90
20827;DHT22;10574;52.508;13.236;2023-07-13T01:07:22;17.60;99.90
20827;DHT22;10574;52.508;13.236;2023-07-13T01:09:49;17.50;99.90
20827;DHT22;10574;52.508;13.236;2023-07-13T01:12:17;17.40;99.90
20827;DHT22;10574;52.508;13.236;2023-07-13T01:14:45;17.40;99.90
20827;DHT22;10574;52.508;13.236;2023-07-13T01:17:14;17.50;99.90
20827;DHT22;10574;52.508;13.236;2023-07-13T01:19:43;17.50;99.90
20827;DHT22;10574;52.508;13.236;2023-07-13T01:22:13;17.50;99.90
20827;DHT22;10574;52.508;13.236;2023-07-13T01:24:44;17.30;99.90
20827;DHT22;10574;52.508;13.236;2023-07-13T01:27:14;17.30;99.90
20827;DHT22;10574;52.508;13.236;2023-07-13T01:29:44;17.30;99.90
20827;DHT22;10574;52.508;13.236;2023-07-13T01:32:16;17.30;99.90
20827;DHT22;10574;52.508;13.236;2023-07-13T01:34:46;17.20;99.90
20827;DHT22;10574;52.508;13.236;2023-07-13T01:37:13;17.30;99.90
20827;DHT22;10574;52.508;13.236;2023-07-13T01:39:41;17.20;99.90
20827;DHT22;10574;52.508;13.236;2023-07-13T01:42:09;17.20;99.90
20827;DHT22;10574;52.508;13.236;2023-07-13T01:44:37;17.10;99.90
20827;DHT22;10574;52.508;13.236;2023-07-13T01:47:05;17.10;99.90
20827;DHT22;10574;52.508;13.236;2023-07-13T01:49:33;17.10;99.90
20827;DHT22;10574;52.508;13.236;2023-07-13T01:52:00;17.10;99.90
20827;DHT22;10574;52.508;13.236;2023-07-13T01:54:28;17.00;99.90
20827;DHT22;10574;52.508;13.236;2023-07-13T01:56:56;17.00;99.90
20827;DHT22;10574;52.508;13.236;2023-07-13T01:59:23;17.00;99.90
20827;DHT22;10574;52.508;13.236;2023-07-13T02:01:52;17.00;99.90
20827;DHT22;10574;52.508;13.236;2023-07-13T02:04:20;16.90;99.90
20827;DHT22;10574;52.508;13.236;2023-07-13T02:06:48;16.90;99.90
20827;DHT22;10574;52.508;13.236;2023-07-13T02:09:16;16.90;99.90
20827;DHT22;10574;52.508;13.236;2023-07-13T02:11:43;16.80;99.90
20827;DHT22;10574;52.508;13.236;2023-07-13T02:14:11;16.80;99.90
20827;DHT22;10574;52.508;13.236;2023-07-13T02:16:41;16.80;99.90
20827;DHT22;10574;52.508;13.236;2023-07-13T02:19:08;16.80;99.90
20827;DHT22;10574;52.508;13.236;2023-07-13T02:21:36;16.80;99.90
20827;DHT22;10574;52.508;13.236;2023-07-13T02:24:04;16.70;99.90
20827;DHT22;10574;52.508;13.236;2023-07-13T02:26:32;16.70;99.90
20827;DHT22;10574;52.508;13.236;2023-07-13T02:28:59;16.70;99.90
20827;DHT22;10574;52.508;13.236;2023-07-13T02:31:27;16.70;99.90
20827;DHT22;10574;52.508;13.236;2023-07-13T02:33:55;16.70;99.90
20827;DHT22;10574;52.508;13.236;2023-07-13T02:36:23;16.60;99.90
20827;DHT22;10574;52.508;13.236;2023-07-13T02:38:51;16.60;99.90
20827;DHT22;10574;52.508;13.236;2023-07-13T02:41:18;16.60;99.90
20827;DHT22;10574;52.508;13.236;2023-07-13T02:43:47;16.60;99.90
20827;DHT22;10574;52.508;13.236;2023-07-13T02:46:15;16.70;99.90
20827;DHT22;10574;52.508;13.236;2023-07-13T02:48:42;16.70;99.90
20827;DHT22;10574;52.508;13.236;2023-07-13T02:51:10;16.60;99.90
20827;DHT22;10574;52.508;13.236;2023-07-13T02:53:38;16.70;99.90
20827;DHT22;10574;52.508;13.236;2023-07-13T02:56:06;16.70;99.90
20827;DHT22;10574;52.508;13.236;2023-07-13T02:58:34;16.70;99.90
20827;DHT22;10574;52.508;13.236;2023-07-13T03:01:08;16.70;99.90
20827;DHT22;10574;52.508;13.236;2023-07-13T03:03:37;16.70;99.90
20827;DHT22;10574;52.508;13.236;2023-07-13T03:06:05;16.50;99.90
20827;DHT22;10574;52.508;13.236;2023-07-13T03:08:34;16.50;99.90
20827;DHT22;10574;52.508;13.236;2023-07-13T03:11:04;16.40;99.90
20827;DHT22;10574;52.508;13.236;2023-07-13T03:13:32;16.40;99.90
20827;DHT22;10574;52.508;13.236;2023-07-13T03:16:00;16.40;99.90
20827;DHT22;10574;52.508;13.236;2023-07-13T03:18:28;16.40;99.90
20827;DHT22;10574;52.508;13.236;2023-07-13T03:20:56;16.50;99.90
20827;DHT22;10574;52.508;13.236;2023-07-13T03:23:24;16.50;99.90
20827;DHT22;10574;52.508;13.236;2023-07-13T03:26:03;16.40;99.90
20827;DHT22;10574;52.508;13.236;2023-07-13T03:28:32;16.40;99.90
20827;DHT22;10574;52.508;13.236;2023-07-13T03:31:04;16.50;99.90
20827;DHT22;10574;52.508;13.236;2023-07-13T03:33:32;16.50;99.90
20827;DHT22;10574;52.508;13.236;2023-07-13T03:35:59;16.60;99.90
20827;DHT22;10574;52.508;13.236;2023-07-13T03:38:27;16.70;99.90
20827;DHT22;10574;52.508;13.236;2023-07-13T03:40:55;16.80;99.90
20827;DHT22;10574;52.508;13.236;2023-07-13T03:43:23;16.90;99.90
20827;DHT22;10574;52.508;13.236;2023-07-13T03:45:50;16.90;99.90
20827;DHT22;10574;52.508;13.236;2023-07-13T03:48:18;17.00;99.90
20827;DHT22;10574;52.508;13.236;2023-07-13T03:50:48;17.00;99.90
20827;DHT22;10574;52.508;13.236;2023-07-13T03:53:16;17.00;99.90
20827;DHT22;10574;52.508;13.236;2023-07-13T03:55:45;17.10;99.90
20827;DHT22;10574;52.508;13.236;2023-07-13T03:58:30;17.20;99.90
20827;DHT22;10574;52.508;13.236;2023-07-13T04:00:59;17.20;99.90
20827;DHT22;10574;52.508;13.236;2023-07-13T04:03:28;17.30;99.90
20827;DHT22;10574;52.508;13.236;2023-07-13T04:05:56;17.30;99.90
20827;DHT22;10574;52.508;13.236;2023-07-13T04:08:28;17.30;99.90
20827;DHT22;10574;52.508;13.236;2023-07-13T04:10:56;17.30;99.90
20827;DHT22;10574;52.508;13.236;2023-07-13T04:13:24;17.30;99.90
20827;DHT22;10574;52.508;13.236;2023-07-13T04:15:53;17.40;99.90
20827;DHT22;10574;52.508;13.236;2023-07-13T04:18:21;17.40;99.90
20827;DHT22;10574;52.508;13.236;2023-07-13T04:20:50;17.50;99.90
20827;DHT22;10574;52.508;13.236;2023-07-13T04:23:18;17.50;99.90
20827;DHT22;10574;52.508;13.236;2023-07-13T04:25:46;17.50;99.90
20827;DHT22;10574;52.508;13.236;2023-07-13T04:28:16;17.60;99.90
20827;DHT22;10574;52.508;13.236;2023-07-13T04:30:46;17.70;99.90
20827;DHT22;10574;52.508;13.236;2023-07-13T04:33:14;17.90;99.90
20827;DHT22;10574;52.508;13.236;2023-07-13T04:35:44;18.00;99.90
20827;DHT22;10574;52.508;13.236;2023-07-13T04:38:13;18.10;99.90
20827;DHT22;10574;52.508;13.236;2023-07-13T04:40:46;18.10;99.90
20827;DHT22;10574;52.508;13.236;2023-07-13T04:43:13;18.30;99.90
20827;DHT22;10574;52.508;13.236;2023-07-13T04:45:41;18.80;99.90
20827;DHT22;10574;52.508;13.236;2023-07-13T04:48:09;19.70;99.90
20827;DHT22;10574;52.508;13.236;2023-07-13T04:50:37;20.70;99.90
20827;DHT22;10574;52.508;13.236;2023-07-13T04:53:05;21.70;99.90
20827;DHT22;10574;52.508;13.236;2023-07-13T04:55:33;22.60;99.90
20827;DHT22;10574;52.508;13.236;2023-07-13T04:58:01;23.40;99.90
20827;DHT22;10574;52.508;13.236;2023-07-13T05:00:29;24.00;99.90
20827;DHT22;10574;52.508;13.236;2023-07-13T05:02:58;24.20;99.90
20827;DHT22;10574;52.508;13.236;2023-07-13T05:05:26;24.40;99.90
20827;DHT22;10574;52.508;13.236;2023-07-13T05:07:54;24.60;99.90
20827;DHT22;10574;52.508;13.236;2023-07-13T05:10:22;24.80;99.90
20827;DHT22;10574;52.508;13.236;2023-07-13T05:12:50;25.00;99.90
20827;DHT22;10574;52.508;13.236;2023-07-13T05:15:20;25.20;99.90
20827;DHT22;10574;52.508;13.236;2023-07-13T05:17:48;25.10;99.90
20827;DHT22;10574;52.508;13.236;2023-07-13T05:20:18;24.90;99.90
20827;DHT22;10574;52.508;13.236;2023-07-13T05:22:46;24.80;99.90
20827;DHT22;10574;52.508;13.236;2023-07-13T05:25:14;24.80;99.90
20827;DHT22;10574;52.508;13.236;2023-07-13T05:27:42;24.40;99.90
20827;DHT22;10574;52.508;13.236;2023-07-13T05:30:12;24.30;99.90
20827;DHT22;10574;52.508;13.236;2023-07-13T05:32:39;23.60;99.90
20827;DHT22;10574;52.508;13.236;2023-07-13T05:35:07;22.70;99.90
20827;DHT22;10574;52.508;13.236;2023-07-13T05:37:36;22.00;99.90
20827;DHT22;10574;52.508;13.236;2023-07-13T05:40:05;21.90;99.90
20827;DHT22;10574;52.508;13.236;2023-07-13T05:42:32;22.40;99.90
20827;DHT22;10574;52.508;13.236;2023-07-13T05:45:01;22.90;99.90
20827;DHT22;10574;52.508;13.236;2023-07-13T05:47:29;23.30;99.90
20827;DHT22;10574;52.508;13.236;2023-07-13T05:49:57;23.70;99.90
20827;DHT22;10574;52.508;13.236;2023-07-13T05:52:24;24.40;99.90
20827;DHT22;10574;52.508;13.236;2023-07-13T05:54:52;25.00;99.90
20827;DHT22;10574;52.508;13.236;2023-07-13T05:57:20;25.30;99.90
20827;DHT22;10574;52.508;13.236;2023-07-13T05:59:47;25.50;99.90
20827;DHT22;10574;52.508;13.236;2023-07-13T06:02:15;25.70;99.90
20827;DHT22;10574;52.508;13.236;2023-07-13T06:04:43;25.80;99.90
20827;DHT22;10574;52.508;13.236;2023-07-13T06:07:10;25.90;99.90
20827;DHT22;10574;52.508;13.236;2023-07-13T06:09:38;25.60;99.90
20827;DHT22;10574;52.508;13.236;2023-07-13T06:12:06;25.70;99.90
20827;DHT22;10574;52.508;13.236;2023-07-13T06:14:34;25.50;99.90
20827;DHT22;10574;52.508;13.236;2023-07-13T06:17:02;25.60;99.90
20827;DHT22;10574;52.508;13.236;2023-07-13T06:19:30;25.50;99.90
20827;DHT22;10574;52.508;13.236;2023-07-13T06:21:57;25.50;99.90
20827;DHT22;10574;52.508;13.236;2023-07-13T06:24:25;26.00;99.90
20827;DHT22;10574;52.508;13.236;2023-07-13T06:26:53;25.90;99.90
20827;DHT22;10574;52.508;13.236;2023-07-13T06:29:21;25.90;99.90
20827;DHT22;10574;52.508;13.236;2023-07-13T06:31:48;25.80;99.90
20827;DHT22;10574;52.508;13.236;2023-07-13T06:34:16;25.40;99.90
20827;DHT22;10574;52.508;13.236;2023-07-13T06:36:44;25.20;99.90
20827;DHT22;10574;52.508;13.236;2023-07-13T06:39:11;25.10;99.90
20827;DHT22;10574;52.508;13.236;2023-07-13T06:41:40;25.10;99.90
20827;DHT22;10574;52.508;13.236;2023-07-13T06:44:08;25.40;99.90
20827;DHT22;10574;52.508;13.236;2023-07-13T06:46:35;25.80;99.90
20827;DHT22;10574;52.508;13.236;2023-07-13T06:49:03;25.90;99.90
20827;DHT22;10574;52.508;13.236;2023-07-13T06:51:30;25.90;99.90
20827;DHT22;10574;52.508;13.236;2023-07-13T06:53:58;26.10;99.90
20827;DHT22;10574;52.508;13.236;2023-07-13T06:56:26;26.30;99.90
20827;DHT22;10574;52.508;13.236;2023-07-13T06:58:53;26.10;99.90
20827;DHT22;10574;52.508;13.236;2023-07-13T07:01:21;25.90;99.90
20827;DHT22;10574;52.508;13.236;2023-07-13T07:03:48;25.70;99.90
20827;DHT22;10574;52.508;13.236;2023-07-13T07:06:18;25.80;99.90
20827;DHT22;10574;52.508;13.236;2023-07-13T07:08:46;25.60;99.90
20827;DHT22;10574;52.508;13.236;2023-07-13T07:11:21;25.60;99.90
20827;DHT22;10574;52.508;13.236;2023-07-13T07:13:50;25.80;99.90
20827;DHT22;10574;52.508;13.236;2023-07-13T07:16:19;25.90;99.90
20827;DHT22;10574;52.508;13.236;2023-07-13T07:18:48;25.70;99.90
20827;DHT22;10574;52.508;13.236;2023-07-13T07:21:15;25.80;99.90
20827;DHT22;10574;52.508;13.236;2023-07-13T07:23:45;26.20;99.90
20827;DHT22;10574;52.508;13.236;2023-07-13T07:26:13;26.80;99.20
20827;DHT22;10574;52.508;13.236;2023-07-13T07:28:40;26.90;98.30
20827;DHT22;10574;52.508;13.236;2023-07-13T07:31:08;26.90;98.20
20827;DHT22;10574;52.508;13.236;2023-07-13T07:33:36;26.70;96.80
20827;DHT22;10574;52.508;13.236;2023-07-13T07:36:04;26.00;96.90
20827;DHT22;10574;52.508;13.236;2023-07-13T07:38:32;25.50;98.30
20827;DHT22;10574;52.508;13.236;2023-07-13T07:41:04;25.10;98.00
20827;DHT22;10574;52.508;13.236;2023-07-13T07:43:34;24.70;99.10
20827;DHT22;10574;52.508;13.236;2023-07-13T07:46:02;24.50;99.90
20827;DHT22;10574;52.508;13.236;2023-07-13T07:48:31;24.50;99.90
20827;DHT22;10574;52.508;13.236;2023-07-13T07:50:59;24.50;99.90
20827;DHT22;10574;52.508;13.236;2023-07-13T07:53:27;24.50;99.90
20827;DHT22;10574;52.508;13.236;2023-07-13T07:55:55;24.50;99.90
20827;DHT22;10574;52.508;13.236;2023-07-13T07:58:22;24.20;99.90
20827;DHT22;10574;52.508;13.236;2023-07-13T08:00:50;24.50;99.90
20827;DHT22;10574;52.508;13.236;2023-07-13T08:03:18;24.60;99.90
20827;DHT22;10574;52.508;13.236;2023-07-13T08:05:45;24.60;99.90
20827;DHT22;10574;52.508;13.236;2023-07-13T08:08:13;24.60;99.90
20827;DHT22;10574;52.508;13.236;2023-07-13T08:10:41;24.60;99.90
20827;DHT22;10574;52.508;13.236;2023-07-13T08:13:09;24.50;99.90
20827;DHT22;10574;52.508;13.236;2023-07-13T08:15:37;24.50;99.90
20827;DHT22;10574;52.508;13.236;2023-07-13T08:18:05;24.50;99.90
20827;DHT22;10574;52.508;13.236;2023-07-13T08:20:38;24.40;99.90
20827;DHT22;10574;52.508;13.236;2023-07-13T08:23:08;24.20;99.90
20827;DHT22;10574;52.508;13.236;2023-07-13T08:25:36;24.30;99.90
20827;DHT22;10574;52.508;13.236;2023-07-13T08:28:04;24.40;99.90
20827;DHT22;10574;52.508;13.236;2023-07-13T08:30:32;24.60;99.90
20827;DHT22;10574;52.508;13.236;2023-07-13T08:33:00;24.60;99.90
20827;DHT22;10574;52.508;13.236;2023-07-13T08:35:27;24.60;99.90
20827;DHT22;10574;52.508;13.236;2023-07-13T08:37:55;24.60;99.90
20827;DHT22;10574;52.508;13.236;2023-07-13T08:40:26;24.30;99.90
20827;DHT22;10574;52.508;13.236;2023-07-13T08:42:57;24.10;99.90
20827;DHT22;10574;52.508;13.236;2023-07-13T08:45:43;23.90;99.90
20827;DHT22;10574;52.508;13.236;2023-07-13T08:48:19;24.00;99.90
20827;DHT22;10574;52.508;13.236;2023-07-13T08:50:57;24.50;99.90
20827;DHT22;10574;52.508;13.236;2023-07-13T08:53:21;25.00;99.80
20827;DHT22;10574;52.508;13.236;2023-07-13T08:55:53;25.10;98.30
20827;DHT22;10574;52.508;13.236;2023-07-13T08:58:22;25.30;99.00
20827;DHT22;10574;52.508;13.236;2023-07-13T09:03:30;25.50;96.20
20827;DHT22;10574;52.508;13.236;2023-07-13T09:05:58;25.50;97.00
20827;DHT22;10574;52.508;13.236;2023-07-13T09:08:55;25.50;97.10
20827;DHT22;10574;52.508;13.236;2023-07-13T09:11:28;25.80;96.40
20827;DHT22;10574;52.508;13.236;2023-07-13T09:16:43;25.80;95.40
20827;DHT22;10574;52.508;13.236;2023-07-13T09:19:20;25.80;95.70
20827;DHT22;10574;52.508;13.236;2023-07-13T09:21:43;25.80;95.80
20827;DHT22;10574;52.508;13.236;2023-07-13T09:24:27;25.60;94.90
20827;DHT22;10574;52.508;13.236;2023-07-13T09:26:51;25.60;94.90
20827;DHT22;10574;52.508;13.236;2023-07-13T09:29:26;25.70;93.50
20827;DHT22;10574;52.508;13.236;2023-07-13T09:31:55;25.70;93.50
20827;DHT22;10574;52.508;13.236;2023-07-13T09:34:27;26.00;91.00
20827;DHT22;10574;52.508;13.236;2023-07-13T09:36:57;26.10;91.00
20827;DHT22;10574;52.508;13.236;2023-07-13T09:39:41;26.30;91.90
20827;DHT22;10574;52.508;13.236;2023-07-13T09:42:17;26.30;91.50
20827;DHT22;10574;52.508;13.236;2023-07-13T09:44:57;26.20;93.00
20827;DHT22;10574;52.508;13.236;2023-07-13T09:47:30;26.20;93.00
20827;DHT22;10574;52.508;13.236;2023-07-13T09:50:05;25.90;92.60
20827;DHT22;10574;52.508;13.236;2023-07-13T09:52:39;26.30;92.40
20827;DHT22;10574;52.508;13.236;2023-07-13T09:55:52;26.20;90.80
20827;DHT22;10574;52.508;13.236;2023-07-13T09:57:39;26.30;91.90
20827;DHT22;10574;52.508;13.236;2023-07-13T10:00:18;26.30;89.30
20827;DHT22;10574;52.508;13.236;2023-07-13T10:02:39;26.40;87.80
20827;DHT22;10574;52.508;13.236;2023-07-13T10:05:14;26.50;89.50
20827;DHT22;10574;52.508;13.236;2023-07-13T10:07:47;26.50;89.60
20827;DHT22;10574;52.508;13.236;2023-07-13T10:10:18;26.50;89.00
20827;DHT22;10574;52.508;13.236;2023-07-13T10:12:47;26.60;88.60
20827;DHT22;10574;52.508;13.236;2023-07-13T10:15:18;26.80;87.30
20827;DHT22;10574;52.508;13.236;2023-07-13T10:17:45;26.70;88.50
20827;DHT22;10574;52.508;13.236;2023-07-13T10:20:14;26.90;86.80
20827;DHT22;10574;52.508;13.236;2023-07-13T10:23:02;27.00;86.70
20827;DHT22;10574;52.508;13.236;2023-07-13T10:25:24;27.30;85.40
20827;DHT22;10574;52.508;13.236;2023-07-13T10:27:58;27.60;84.50
20827;DHT22;10574;52.508;13.236;2023-07-13T10:30:29;27.80;80.10
20827;DHT22;10574;52.508;13.236;2023-07-13T10:32:58;27.50;81.30
20827;DHT22;10574;52.508;13.236;2023-07-13T10:35:28;27.30;81.40
20827;DHT22;10574;52.508;13.236;2023-07-13T10:38:01;27.10;81.50
20827;DHT22;10574;52.508;13.236;2023-07-13T10:40:34;27.00;81.10
20827;DHT22;10574;52.508;13.236;2023-07-13T10:43:09;26.70;84.10
20827;DHT22;10574;52.508;13.236;2023-07-13T10:45:34;26.60;84.70
20827;DHT22;10574;52.508;13.236;2023-07-13T10:48:02;26.50;85.30
20827;DHT22;10574;52.508;13.236;2023-07-13T10:50:31;26.40;81.20
20827;DHT22;10574;52.508;13.236;2023-07-13T10:53:18;26.50;83.00
20827;DHT22;10574;52.508;13.236;2023-07-13T10:58:36;26.90;83.30
20827;DHT22;10574;52.508;13.236;2023-07-13T11:01:10;27.10;83.80
20827;DHT22;10574;52.508;13.236;2023-07-13T11:03:47;27.30;79.80
20827;DHT22;10574;52.508;13.236;2023-07-13T11:06:39;26.90;77.90
20827;DHT22;10574;52.508;13.236;2023-07-13T11:09:38;26.40;81.10
20827;DHT22;10574;52.508;13.236;2023-07-13T11:12:26;26.50;79.90
20827;DHT22;10574;52.508;13.236;2023-07-13T11:22:45;27.20;76.80
20827;DHT22;10574;52.508;13.236;2023-07-13T11:25:29;27.50;74.60
20827;DHT22;10574;52.508;13.236;2023-07-13T11:28:17;27.60;75.40
20827;DHT22;10574;52.508;13.236;2023-07-13T11:36:16;27.80;72.40
20827;DHT22;10574;52.508;13.236;2023-07-13T11:38:55;27.80;70.50
20827;DHT22;10574;52.508;13.236;2023-07-13T11:41:22;27.40;72.70
20827;DHT22;10574;52.508;13.236;2023-07-13T11:43:56;27.40;70.90
20827;DHT22;10574;52.508;13.236;2023-07-13T11:46:26;27.10;71.30
20827;DHT22;10574;52.508;13.236;2023-07-13T11:48:55;26.90;72.60
20827;DHT22;10574;52.508;13.236;2023-07-13T11:51:28;26.70;75.10
20827;DHT22;10574;52.508;13.236;2023-07-13T11:54:02;26.80;73.10
20827;DHT22;10574;52.508;13.236;2023-07-13T11:56:29;27.00;75.20
20827;DHT22;10574;52.508;13.236;2023-07-13T11:59:04;27.00;74.40
20827;DHT22;10574;52.508;13.236;2023-07-13T12:01:31;27.10;75.10
20827;DHT22;10574;52.508;13.236;2023-07-13T12:04:03;27.10;73.70
20827;DHT22;10574;52.508;13.236;2023-07-13T12:06:34;27.20;74.50
20827;DHT22;10574;52.508;13.236;2023-07-13T12:09:13;27.20;75.60
20827;DHT22;10574;52.508;13.236;2023-07-13T12:11:43;27.30;74.80
20827;DHT22;10574;52.508;13.236;2023-07-13T12:14:15;27.20;75.10
20827;DHT22;10574;52.508;13.236;2023-07-13T12:16:45;27.40;74.10
20827;DHT22;10574;52.508;13.236;2023-07-13T12:19:21;27.30;72.20
20827;DHT22;10574;52.508;13.236;2023-07-13T12:21:52;27.00;74.60
20827;DHT22;10574;52.508;13.236;2023-07-13T12:24:21;27.10;74.00
20827;DHT22;10574;52.508;13.236;2023-07-13T12:27:03;27.20;72.20
20827;DHT22;10574;52.508;13.236;2023-07-13T12:29:32;27.20;70.70
20827;DHT22;10574;52.508;13.236;2023-07-13T12:32:00;27.20;71.30
20827;DHT22;10574;52.508;13.236;2023-07-13T12:34:28;27.20;72.60
20827;DHT22;10574;52.508;13.236;2023-07-13T12:37:01;27.30;70.70
20827;DHT22;10574;52.508;13.236;2023-07-13T12:39:34;27.20;71.80
20827;DHT22;10574;52.508;13.236;2023-07-13T12:42:27;27.30;71.70
20827;DHT22;10574;52.508;13.236;2023-07-13T12:45:05;27.30;70.90
20827;DHT22;10574;52.508;13.236;2023-07-13T12:47:39;27.30;70.60
20827;DHT22;10574;52.508;13.236;2023-07-13T12:50:03;27.00;71.30
20827;DHT22;10574;52.508;13.236;2023-07-13T12:52:34;27.00;71.30
20827;DHT22;10574;52.508;13.236;2023-07-13T12:55:17;26.70;71.90
20827;DHT22;10574;52.508;13.236;2023-07-13T12:57:44;26.30;72.90
20827;DHT22;10574;52.508;13.236;2023-07-13T13:00:23;26.30;73.10
20827;DHT22;10574;52.508;13.236;2023-07-13T13:02:56;26.50;73.20
20827;DHT22;10574;52.508;13.236;2023-07-13T13:05:32;26.40;74.60
20827;DHT22;10574;52.508;13.236;2023-07-13T13:08:00;26.30;75.70
20827;DHT22;10574;52.508;13.236;2023-07-13T13:10:28;26.40;73.80
20827;DHT22;10574;52.508;13.236;2023-07-13T13:13:00;26.60;75.20
20827;DHT22;10574;52.508;13.236;2023-07-13T13:15:28;26.90;72.60
20827;DHT22;10574;52.508;13.236;2023-07-13T13:17:56;27.20;72.60
20827;DHT22;10574;52.508;13.236;2023-07-13T13:20:25;27.50;70.60
20827;DHT22;10574;52.508;13.236;2023-07-13T13:22:53;27.40;71.40
20827;DHT22;10574;52.508;13.236;2023-07-13T13:25:22;27.40;70.90
20827;DHT22;10574;52.508;13.236;2023-07-13T13:27:49;27.20;70.50
20827;DHT22;10574;52.508;13.236;2023-07-13T13:30:18;27.20;69.90
20827;DHT22;10574;52.508;13.236;2023-07-13T13:32:48;27.20;70.00
20827;DHT22;10574;52.508;13.236;2023-07-13T13:35:17;27.30;68.70
20827;DHT22;10574;52.508;13.236;2023-07-13T13:37:46;27.10;69.50
20827;DHT22;10574;52.508;13.236;2023-07-13T13:40:21;27.10;70.90
20827;DHT22;10574;52.508;13.236;2023-07-13T13:42:51;27.10;69.80
20827;DHT22;10574;52.508;13.236;2023-07-13T13:45:20;27.20;69.10
20827;DHT22;10574;52.508;13.236;2023-07-13T13:50:37;27.30;70.30
20827;DHT22;10574;52.508;13.236;2023-07-13T13:53:05;27.40;71.80
20827;DHT22;10574;52.508;13.236;2023-07-13T13:55:33;27.60;70.40
20827;DHT22;10574;52.508;13.236;2023-07-13T13:58:02;27.60;69.50
20827;DHT22;10574;52.508;13.236;2023-07-13T14:00:31;27.50;70.50
20827;DHT22;10574;52.508;13.236;2023-07-13T14:02:59;27.30;73.10
20827;DHT22;10574;52.508;13.236;2023-07-13T14:05:27;27.30;71.20
20827;DHT22;10574;52.508;13.236;2023-07-13T14:07:55;27.40;70.50
20827;DHT22;10574;52.508;13.236;2023-07-13T14:10:23;27.30;71.80
20827;DHT22;10574;52.508;13.236;2023-07-13T14:12:53;27.30;70.90
20827;DHT22;10574;52.508;13.236;2023-07-13T14:15:29;27.20;70.50
20827;DHT22;10574;52.508;13.236;2023-07-13T14:18:00;27.00;71.90
20827;DHT22;10574;52.508;13.236;2023-07-13T14:20:27;26.90;70.60
20827;DHT22;10574;52.508;13.236;2023-07-13T14:22:56;26.90;72.00
20827;DHT22;10574;52.508;13.236;2023-07-13T14:25:25;27.10;73.30
20827;DHT22;10574;52.508;13.236;2023-07-13T14:27:56;27.10;71.00
20827;DHT22;10574;52.508;13.236;2023-07-13T14:30:27;27.00;72.20
20827;DHT22;10574;52.508;13.236;2023-07-13T14:32:54;26.80;72.20
20827;DHT22;10574;52.508;13.236;2023-07-13T14:35:23;26.70;72.50
20827;DHT22;10574;52.508;13.236;2023-07-13T14:37:51;26.80;72.00
20827;DHT22;10574;52.508;13.236;2023-07-13T14:40:28;26.90;72.50
20827;DHT22;10574;52.508;13.236;2023-07-13T14:42:55;26.90;73.20
20827;DHT22;10574;52.508;13.236;2023-07-13T14:45:23;26.90;73.70
20827;DHT22;10574;52.508;13.236;2023-07-13T14:47:58;27.00;70.00
20827;DHT22;10574;52.508;13.236;2023-07-13T14:50:30;27.00;70.30
20827;DHT22;10574;52.508;13.236;2023-07-13T14:52:56;27.00;67.60
20827;DHT22;10574;52.508;13.236;2023-07-13T14:55:23;27.00;68.00
20827;DHT22;10574;52.508;13.236;2023-07-13T14:57:53;27.00;68.40
20827;DHT22;10574;52.508;13.236;2023-07-13T15:00:22;27.10;66.80
20827;DHT22;10574;52.508;13.236;2023-07-13T15:02:53;27.20;64.80
20827;DHT22;10574;52.508;13.236;2023-07-13T15:05:25;27.30;65.60
20827;DHT22;10574;52.508;13.236;2023-07-13T15:07:56;27.40;67.30
20827;DHT22;10574;52.508;13.236;2023-07-13T15:10:26;27.50;68.00
20827;DHT22;10574;52.508;13.236;2023-07-13T15:13:15;27.70;68.30
20827;DHT22;10574;52.508;13.236;2023-07-13T15:15:31;27.80;67.70
20827;DHT22;10574;52.508;13.236;2023-07-13T15:18:00;27.70;67.20
20827;DHT22;10574;52.508;13.236;2023-07-13T15:20:33;27.50;67.30
20827;DHT22;10574;52.508;13.236;2023-07-13T15:23:04;27.40;68.60
20827;DHT22;10574;52.508;13.236;2023-07-13T15:25:33;27.40;67.90
20827;DHT22;10574;52.508;13.236;2023-07-13T15:28:01;27.20;68.70
20827;DHT22;10574;52.508;13.236;2023-07-13T15:30:41;27.10;70.30
20827;DHT22;10574;52.508;13.236;2023-07-13T15:33:05;27.30;69.70
20827;DHT22;10574;52.508;13.236;2023-07-13T15:35:33;27.10;70.10
20827;DHT22;10574;52.508;13.236;2023-07-13T15:38:01;27.00;70.40
20827;DHT22;10574;52.508;13.236;2023-07-13T15:40:30;26.80;70.40
20827;DHT22;10574;52.508;13.236;2023-07-13T15:42:58;26.90;71.30
20827;DHT22;10574;52.508;13.236;2023-07-13T15:45:25;27.00;70.10
20827;DHT22;10574;52.508;13.236;2023-07-13T15:47:54;27.20;71.10
20827;DHT22;10574;52.508;13.236;2023-07-13T15:50:24;27.30;70.90
20827;DHT22;10574;52.508;13.236;2023-07-13T15:52:56;27.50;69.60
20827;DHT22;10574;52.508;13.236;2023-07-13T15:55:25;27.40;68.60
20827;DHT22;10574;52.508;13.236;2023-07-13T15:57:53;27.00;68.10